Tours, France

3:01 PM CEST on July 22, 2017 (GMT +0200)
Val de Loire Air Base | | Change Station

Elev 367 ft 47.45 °N, 0.72 °E | Updated 31 minutes ago

Overcast
Overcast
64 °F
Feels Like 64 °F
N
5
Wind Variable Wind from South

Today
High -- | Low -- °F
--% Chance of Precip.
Yesterday
High -- | Low -- °F
Precip. -- in
Pressure 29.92 in
Visibility 6.2 miles
Clouds Few 2900 ft
Scattered Clouds 4200 ft
Overcast 5600 ft
Dew Point 59 °F
Humidity 83%
Rainfall 0.00 in
Snow Depth Not available.
6:23 AM 9:43 PM
Waning Crescent, 1% visible
METAR LFOT 221230Z AUTO 17004KT 140V200 9999 FEW029 SCT042 OVC056 18/15 Q1013 TEMPO 4000 -SHRA SCT012 BKN030TCU
Pressure 29.92 in
Visibility 6.2 miles
Clouds Few 2900 ft
Scattered Clouds 4200 ft
Overcast 5600 ft
Dew Point 59 °F
Humidity 83%
Rainfall 0.00 in
Snow Depth Not available.
6:23 AM 9:43 PM
Waning Crescent, 1% visible
METAR LFOT 221230Z AUTO 17004KT 140V200 9999 FEW029 SCT042 OVC056 18/15 Q1013 TEMPO 4000 -SHRA SCT012 BKN030TCU

Get Severe Weather Alerts

Thanks for signing up!

Be on the lookout for a verification email in your inbox.

You'll start receiving the daily forecast at 6 AM.

×

10-Day Weather Forecast

×

Almanac

Astronomy

Jul. 22, 2017 Rise Set
Actual Time
Civil Twilight
Nautical Twilight
Astronomical Twilight
Moon
Length of Visible Light
Length of Day
Tomorrow will be .
, % of the Moon is Illuminated

Today's Extremes

Country Highs Country Lows

Community

WunderPhotos

Category 6

Welcome to Category 6. This is the collective home for Weather Underground's featured writeups by Dr. Jeff Masters (right), Bob Henson (left), Chris Burt, and other regular contributors.

Nearby

Air Quality

  Air Quality AQ Index Pollutant
Not available.

Snow Depth

Station Depth Elevation

Earthquake Activity

City Distance Mag. Time & Date
Minimum magnitude displayed is 2.5.

Coastal Water Temperatures

Place Temperature

Stations

Nearby Weather Stations

Station Location Temp. Windchill Dew Point Humidity Wind Precip. Elev Updated Type